Time;durP1;ratioP1;P1;durP2;ratioP2;P2;SDS_P1;SDS_P2;PMS_P1;PMS_P2;Temp;Humidity;BMP_temperature;BMP_pressure;BME280_temperature;BME280_humidity;BME280_pressure;Samples;Min_cycle;Max_cycle;Signal;HPM_P1;HPM_P2
2023/09/21 00:01:10;;;;;;;4.28;0.30;;;;;;;16.78;100.00;99160.72;7360300;19;20580;-65
2023/09/21 00:03:39;;;;;;;5.80;0.30;;;;;;;16.74;100.00;99167.56;7356532;19;20125;-65
2023/09/21 00:06:16;;;;;;;5.18;0.70;;;;;;;16.71;100.00;99165.38;7360686;19;21353;-66
2023/09/21 00:08:47;;;;;;;2.28;0.30;;;;;;;16.71;100.00;99165.38;7359345;19;20015;-66
2023/09/21 00:11:15;;;;;;;3.55;0.40;;;;;;;16.74;100.00;99165.69;7352248;19;20804;-66
2023/09/21 00:13:42;;;;;;;5.00;0.40;;;;;;;16.72;100.00;99170.44;7359412;19;20296;-65
2023/09/21 00:16:11;;;;;;;2.30;0.25;;;;;;;16.70;100.00;99167.22;7357099;19;20037;-65
2023/09/21 00:18:42;;;;;;;4.28;0.40;;;;;;;16.73;100.00;99165.94;7362583;19;20022;-64
2023/09/21 00:21:12;;;;;;;8.40;0.40;;;;;;;16.73;100.00;99158.78;7357865;19;20018;-66
2023/09/21 00:23:41;;;;;;;8.40;0.30;;;;;;;16.71;100.00;99144.91;7360277;19;20011;-66
2023/09/21 00:26:09;;;;;;;4.32;0.30;;;;;;;16.71;100.00;99157.41;7356842;19;20526;-65
2023/09/21 00:28:36;;;;;;;9.40;0.63;;;;;;;16.70;100.00;99163.75;7359634;19;20397;-66
2023/09/21 00:31:04;;;;;;;6.05;0.40;;;;;;;16.70;100.00;99163.75;7358284;19;20021;-66
2023/09/21 00:33:33;;;;;;;6.38;0.40;;;;;;;16.64;100.00;99158.34;7358141;19;20031;-66
2023/09/21 00:36:13;;;;;;;4.47;0.40;;;;;;;16.64;100.00;99165.50;7359861;19;20583;-66
2023/09/21 00:38:40;;;;;;;3.72;0.32;;;;;;;16.59;100.00;99152.91;7360350;19;20015;-66
2023/09/21 00:41:09;;;;;;;5.50;0.30;;;;;;;16.56;100.00;99140.06;7355001;19;20506;-66
2023/09/21 00:43:36;;;;;;;6.22;0.60;;;;;;;16.55;100.00;99154.41;7360384;19;20687;-66
2023/09/21 00:46:03;;;;;;;14.02;2.47;;;;;;;16.58;100.00;99164.56;7358626;19;20503;-66
2023/09/21 00:48:33;;;;;;;4.93;0.30;;;;;;;16.59;100.00;99158.22;7360487;19;20031;-66
2023/09/21 00:51:05;;;;;;;5.22;0.40;;;;;;;16.56;100.00;99160.47;7358585;19;20406;-65
2023/09/21 00:53:34;;;;;;;5.07;0.50;;;;;;;16.54;100.00;99155.44;7357235;19;20086;-65
2023/09/21 00:56:08;;;;;;;3.30;0.30;;;;;;;16.51;100.00;99139.13;7355729;19;20030;-65
2023/09/21 00:58:37;;;;;;;4.90;0.30;;;;;;;16.49;100.00;99154.50;7358341;19;20086;-66
2023/09/21 01:01:05;;;;;;;7.07;0.90;;;;;;;16.49;100.00;99151.84;7357647;19;20021;-65
2023/09/21 01:03:37;;;;;;;4.43;0.30;;;;;;;16.50;100.00;99158.78;7360249;19;20043;-66
2023/09/21 01:06:08;;;;;;;4.60;0.38;;;;;;;16.48;100.00;99158.19;7358990;19;20014;-65
2023/09/21 01:08:35;;;;;;;7.63;0.40;;;;;;;16.46;100.00;99154.94;7354989;19;20014;-66
2023/09/21 01:11:08;;;;;;;8.23;0.50;;;;;;;16.42;100.00;99165.25;7349816;19;20033;-65
2023/09/21 01:13:36;;;;;;;5.25;0.30;;;;;;;16.35;100.00;99164.56;7354083;19;20026;-65
2023/09/21 01:16:05;;;;;;;8.48;0.50;;;;;;;16.34;100.00;99162.13;7354746;19;20014;-65
2023/09/21 01:18:33;;;;;;;4.20;0.82;;;;;;;16.30;100.00;99169.75;7357599;19;20074;-66
2023/09/21 01:21:06;;;;;;;7.18;1.27;;;;;;;16.27;100.00;99167.56;7360289;19;20525;-65
2023/09/21 01:23:42;;;;;;;6.13;0.50;;;;;;;16.31;100.00;99159.94;7357718;19;20407;-66
2023/09/21 01:26:10;;;;;;;4.28;0.40;;;;;;;16.26;100.00;99165.94;7352255;19;21524;-66
2023/09/21 01:28:37;;;;;;;2.58;0.30;;;;;;;16.26;100.00;99166.75;7359110;19;20018;-66
2023/09/21 01:31:09;;;;;;;4.72;0.40;;;;;;;16.26;100.00;99176.53;7358128;19;20022;-65
2023/09/21 01:33:36;;;;;;;7.18;0.30;;;;;;;16.25;100.00;99174.97;7360371;19;20014;-66
2023/09/21 01:36:08;;;;;;;8.18;0.77;;;;;;;16.26;100.00;99168.59;7355234;19;20290;-66
2023/09/21 01:38:35;;;;;;;9.38;1.38;;;;;;;16.30;100.00;99166.28;7359090;19;20499;-66
2023/09/21 01:41:04;;;;;;;5.93;0.30;;;;;;;16.30;100.00;99171.59;7354420;19;20018;-66
2023/09/21 01:43:31;;;;;;;6.22;0.40;;;;;;;16.30;100.00;99167.09;7353343;19;20100;-66
2023/09/21 01:45:58;;;;;;;7.10;0.30;;;;;;;16.27;100.00;99168.38;7357481;19;21725;-66
2023/09/21 01:48:27;;;;;;;6.55;1.20;;;;;;;16.25;100.00;99169.66;7357027;19;20018;-66
2023/09/21 01:50:57;;;;;;;7.43;0.40;;;;;;;16.24;100.00;99163.53;7355704;19;20015;-65
2023/09/21 01:53:25;;;;;;;11.05;1.45;;;;;;;16.23;100.00;99169.06;7356516;19;20042;-67
2023/09/21 01:55:52;;;;;;;2.60;0.30;;;;;;;16.25;100.00;99167.00;7354762;19;20014;-65
2023/09/21 01:58:23;;;;;;;5.25;0.73;;;;;;;16.20;100.00;99164.22;7357046;19;20006;-65
2023/09/21 02:00:51;;;;;;;5.05;0.30;;;;;;;16.24;100.00;99158.22;7355355;19;20035;-66
2023/09/21 02:03:31;;;;;;;9.90;0.95;;;;;;;16.20;100.00;99156.25;7356866;19;20014;-66
2023/09/21 02:06:02;;;;;;;3.88;0.35;;;;;;;16.19;100.00;99159.94;7364124;19;20086;-66
2023/09/21 02:08:31;;;;;;;10.25;0.30;;;;;;;16.13;100.00;99153.72;7362999;19;20363;-66
2023/09/21 02:10:59;;;;;;;9.23;0.80;;;;;;;16.14;100.00;99163.28;7354302;19;20370;-65
2023/09/21 02:13:26;;;;;;;6.47;1.10;;;;;;;16.17;100.00;99148.75;7359787;19;20031;-66
2023/09/21 02:15:54;;;;;;;6.78;0.80;;;;;;;16.14;100.00;99151.88;7361352;19;20018;-65
2023/09/21 02:18:21;;;;;;;3.97;0.30;;;;;;;16.10;100.00;99142.75;7366459;19;20030;-67
2023/09/21 02:20:55;;;;;;;4.28;0.63;;;;;;;16.08;100.00;99140.31;7363940;19;21476;-66
2023/09/21 02:23:26;;;;;;;6.75;0.40;;;;;;;16.08;100.00;99137.66;7365288;19;20025;-67
2023/09/21 02:25:53;;;;;;;5.32;0.50;;;;;;;16.07;100.00;99135.25;7358472;19;20006;-65
2023/09/21 02:28:22;;;;;;;5.03;0.30;;;;;;;16.04;100.00;99127.75;7362368;19;20025;-65
2023/09/21 02:30:50;;;;;;;6.78;1.05;;;;;;;15.99;100.00;99128.44;7364043;19;20053;-65
2023/09/21 02:33:17;;;;;;;3.97;0.40;;;;;;;16.05;100.00;99137.34;7364548;19;20018;-66
2023/09/21 02:35:46;;;;;;;4.05;0.40;;;;;;;16.04;100.00;99138.38;7362758;19;20788;-66
2023/09/21 02:38:22;;;;;;;4.03;0.30;;;;;;;15.97;100.00;99135.81;7364425;19;20018;-65
2023/09/21 02:40:49;;;;;;;5.80;0.22;;;;;;;15.93;100.00;99121.41;7361112;19;20486;-66
2023/09/21 02:43:16;;;;;;;4.80;0.60;;;;;;;15.94;100.00;99112.41;7364320;19;20014;-66
2023/09/21 02:45:47;;;;;;;5.55;0.40;;;;;;;15.94;100.00;99119.56;7363211;19;20771;-66
2023/09/21 02:48:15;;;;;;;3.72;0.30;;;;;;;15.97;100.00;99111.94;7364084;19;20061;-66
2023/09/21 02:50:47;;;;;;;3.28;0.30;;;;;;;15.94;100.00;99117.72;7363808;19;20082;-64
2023/09/21 02:53:15;;;;;;;7.38;0.40;;;;;;;15.90;100.00;99129.00;7363671;19;20474;-66
2023/09/21 02:55:43;;;;;;;5.00;0.30;;;;;;;15.89;100.00;99133.50;7360345;19;20014;-65
2023/09/21 02:58:11;;;;;;;5.05;0.45;;;;;;;15.85;100.00;99134.19;7362807;19;20596;-66
2023/09/21 03:00:43;;;;;;;5.88;0.57;;;;;;;15.81;100.00;99137.28;7362136;19;20752;-66
2023/09/21 03:03:17;;;;;;;7.97;0.67;;;;;;;15.80;100.00;99134.84;7361585;19;20027;-66
2023/09/21 03:05:47;;;;;;;9.38;0.75;;;;;;;15.80;100.00;99129.56;7361552;19;20282;-66
2023/09/21 03:08:16;;;;;;;5.45;0.38;;;;;;;15.83;100.00;99129.13;7362354;19;20006;-66
2023/09/21 03:10:47;;;;;;;4.53;0.40;;;;;;;15.81;100.00;99131.16;7358202;19;20374;-66
2023/09/21 03:13:18;;;;;;;7.93;0.30;;;;;;;15.78;100.00;99139.59;7355394;19;20666;-66
2023/09/21 03:15:48;;;;;;;2.75;0.40;;;;;;;15.77;100.00;99130.03;7356934;19;20117;-65
2023/09/21 03:18:16;;;;;;;2.25;0.20;;;;;;;15.82;100.00;99130.16;7361976;19;21983;-66
2023/09/21 03:20:44;;;;;;;7.30;1.08;;;;;;;15.85;100.00;99132.31;7358796;19;20631;-65
2023/09/21 03:23:13;;;;;;;3.75;0.30;;;;;;;15.87;100.00;99134.75;7357876;19;20015;-67
2023/09/21 03:25:43;;;;;;;10.00;0.60;;;;;;;15.83;100.00;99127.28;7358716;19;20373;-66
2023/09/21 03:28:13;;;;;;;11.57;0.52;;;;;;;15.82;100.00;99115.03;7361811;19;20208;-65
2023/09/21 03:30:44;;;;;;;12.95;0.40;;;;;;;15.81;100.00;99113.41;7362247;19;20003;-65
2023/09/21 03:33:13;;;;;;;6.50;0.40;;;;;;;15.80;100.00;99109.16;7362614;19;20011;-66
2023/09/21 03:35:40;;;;;;;7.85;0.40;;;;;;;15.80;100.00;99117.09;7362671;19;20692;-66
2023/09/21 03:38:18;;;;;;;6.88;1.60;;;;;;;15.80;100.00;99117.09;7361875;19;20011;-66
2023/09/21 03:40:50;;;;;;;7.47;0.60;;;;;;;15.82;100.00;99127.50;7359781;19;20624;-66
2023/09/21 03:43:18;;;;;;;2.92;0.30;;;;;;;15.83;100.00;99123.81;7362537;19;20022;-66
2023/09/21 03:45:47;;;;;;;8.25;0.95;;;;;;;15.84;100.00;99122.78;7362308;19;20019;-65
2023/09/21 03:48:15;;;;;;;6.88;0.40;;;;;;;15.81;100.00;99131.97;7362484;19;20015;-66
2023/09/21 03:50:44;;;;;;;4.28;0.32;;;;;;;15.81;100.00;99139.94;7362742;19;20340;-66
2023/09/21 03:53:11;;;;;;;8.80;0.60;;;;;;;15.78;100.00;99137.75;7360413;19;20046;-66
2023/09/21 03:55:39;;;;;;;8.10;2.40;;;;;;;15.77;100.00;99141.44;7361346;19;20037;-66
2023/09/21 03:58:07;;;;;;;6.05;0.40;;;;;;;15.78;100.00;99144.91;7359475;19;20022;-66
2023/09/21 04:03:11;;;;;;;6.55;0.63;;;;;;;15.73;100.00;99142.94;7359366;19;20376;-66
2023/09/21 04:05:40;;;;;;;6.25;0.30;;;;;;;15.71;100.00;99122.97;7361339;19;20075;-66
2023/09/21 04:08:08;;;;;;;2.63;0.30;;;;;;;15.73;100.00;99131.53;7361224;19;20055;-66
2023/09/21 04:10:39;;;;;;;6.38;0.30;;;;;;;15.74;100.00;99125.19;7360720;19;20683;-65
2023/09/21 04:13:06;;;;;;;8.57;1.13;;;;;;;15.70;100.00;99127.47;7352447;19;21650;-66
2023/09/21 04:15:33;;;;;;;6.80;0.40;;;;;;;15.72;100.00;99127.25;7356009;19;20022;-65
2023/09/21 04:18:02;;;;;;;6.45;0.50;;;;;;;15.71;100.00;99137.03;7358605;19;20060;-66
2023/09/21 04:20:34;;;;;;;5.00;0.28;;;;;;;15.73;100.00;99139.47;7358858;19;20038;-67
2023/09/21 04:23:02;;;;;;;;;;;;;;;15.74;100.00;99133.13;7361019;19;20216;-65
2023/09/21 04:25:30;;;;;;;4.30;0.32;;;;;;;15.74;100.00;99135.78;7358964;19;20394;-65
2023/09/21 04:27:57;;;;;;;5.95;0.38;;;;;;;15.69;100.00;99133.81;7356505;19;20018;-66
2023/09/21 04:30:24;;;;;;;6.22;0.30;;;;;;;15.61;100.00;99123.53;7359113;19;20018;-65
2023/09/21 04:32:53;;;;;;;6.57;0.40;;;;;;;15.63;100.00;99134.72;7359453;19;20040;-66
2023/09/21 04:35:23;;;;;;;3.88;0.30;;;;;;;15.60;100.00;99129.06;7357979;19;20282;-65
2023/09/21 04:37:58;;;;;;;6.13;0.40;;;;;;;15.57;100.00;99125.03;7358091;19;20014;-67
2023/09/21 04:40:28;;;;;;;9.13;0.40;;;;;;;15.57;100.00;99134.81;7358694;19;20010;-66
2023/09/21 04:42:56;;;;;;;5.63;0.63;;;;;;;15.58;100.00;99124.00;7357418;19;20022;-65
2023/09/21 04:45:26;;;;;;;5.50;0.40;;;;;;;15.56;100.00;99125.25;7357305;19;20015;-65
2023/09/21 04:48:00;;;;;;;10.48;0.50;;;;;;;15.52;100.00;99119.59;7358784;19;20014;-66
2023/09/21 04:50:29;;;;;;;7.57;0.73;;;;;;;15.51;100.00;99123.28;7360992;19;20414;-66
2023/09/21 04:52:56;;;;;;;5.05;0.50;;;;;;;15.49;100.00;99119.22;7360295;19;20023;-65
2023/09/21 04:55:23;;;;;;;9.88;0.47;;;;;;;15.47;100.00;99121.28;7357158;19;20941;-65
2023/09/21 04:57:51;;;;;;;8.65;0.55;;;;;;;15.42;100.00;99135.22;7356104;19;20792;-65
2023/09/21 05:00:18;;;;;;;7.85;0.43;;;;;;;15.40;100.00;99135.44;7360079;19;20038;-66
2023/09/21 05:02:45;;;;;;;8.73;0.40;;;;;;;15.35;100.00;99127.34;7357351;19;20220;-66
2023/09/21 05:05:14;;;;;;;3.80;0.30;;;;;;;15.30;100.00;99137.81;7360138;19;20474;-66
2023/09/21 05:07:42;;;;;;;5.15;0.50;;;;;;;15.36;100.00;99136.94;7359311;19;22322;-67
2023/09/21 05:10:12;;;;;;;7.25;0.40;;;;;;;15.37;100.00;99146.50;7360450;19;20474;-67
2023/09/21 05:12:41;;;;;;;5.28;0.40;;;;;;;15.35;100.00;99143.25;7352519;19;20014;-66
2023/09/21 05:15:11;;;;;;;6.20;1.02;;;;;;;15.31;100.00;99142.09;7355121;19;20011;-66
2023/09/21 05:17:38;;;;;;;5.72;0.43;;;;;;;15.32;100.00;99138.41;7353655;19;20015;-65
2023/09/21 05:20:09;;;;;;;7.93;0.40;;;;;;;15.35;100.00;99147.75;7359254;19;20554;-66
2023/09/21 05:22:40;;;;;;;6.65;0.40;;;;;;;15.31;100.00;99149.22;7358167;19;20014;-66
2023/09/21 05:25:09;;;;;;;7.47;0.50;;;;;;;15.29;100.00;99148.63;7357658;19;20617;-66
2023/09/21 05:27:36;;;;;;;6.60;0.50;;;;;;;15.32;100.00;99159.63;7353670;19;20037;-66
2023/09/21 05:30:04;;;;;;;6.13;0.30;;;;;;;15.29;100.00;99157.41;7360469;19;20586;-65
2023/09/21 05:32:32;;;;;;;6.40;0.30;;;;;;;15.27;100.00;99153.38;7353691;19;20011;-66
2023/09/21 05:35:05;;;;;;;5.72;0.43;;;;;;;15.24;100.00;99156.44;7358355;19;20019;-64
2023/09/21 05:37:35;;;;;;;8.07;0.40;;;;;;;15.21;100.00;99160.38;7356477;19;20051;-66
2023/09/21 05:40:06;;;;;;;5.63;0.35;;;;;;;15.21;100.00;99159.56;7355825;19;20002;-66
2023/09/21 05:42:35;;;;;;;10.50;0.57;;;;;;;15.22;100.00;99150.59;7353769;19;20014;-65
2023/09/21 05:45:03;;;;;;;6.43;0.35;;;;;;;15.22;100.00;99145.28;7356094;19;20691;-65
2023/09/21 05:47:30;;;;;;;3.97;0.30;;;;;;;15.19;100.00;99149.19;7357617;19;20043;-64
2023/09/21 05:49:57;;;;;;;6.43;0.60;;;;;;;15.21;100.00;99160.38;7359194;19;20006;-65
2023/09/21 05:52:25;;;;;;;7.15;0.40;;;;;;;15.17;100.00;99155.75;7356586;19;20006;-65
2023/09/21 05:54:53;;;;;;;10.75;0.88;;;;;;;15.16;100.00;99156.78;7356723;19;20018;-66
2023/09/21 05:57:21;;;;;;;5.30;0.65;;;;;;;15.12;100.00;99148.47;7352009;19;20379;-65
2023/09/21 05:59:50;;;;;;;7.20;0.63;;;;;;;15.11;100.00;99140.75;7356459;19;20180;-65
2023/09/21 06:02:17;;;;;;;5.35;0.50;;;;;;;15.07;100.00;99134.28;7354422;19;20018;-65
2023/09/21 06:04:44;;;;;;;5.00;0.50;;;;;;;15.09;100.00;99145.44;7358473;19;20679;-65
2023/09/21 06:07:12;;;;;;;9.07;0.70;;;;;;;15.09;100.00;99150.75;7358400;19;20828;-65
2023/09/21 06:09:39;;;;;;;9.88;0.85;;;;;;;15.13;100.00;99150.09;7356608;19;20007;-65
2023/09/21 06:12:13;;;;;;;8.77;0.60;;;;;;;15.13;100.00;99157.22;7350445;19;20018;-66
2023/09/21 06:14:41;;;;;;;7.72;0.50;;;;;;;15.15;100.00;99169.22;7351099;19;20045;-65
2023/09/21 06:17:13;;;;;;;6.45;0.40;;;;;;;15.16;100.00;99165.53;7353800;19;20021;-66
2023/09/21 06:19:47;;;;;;;8.82;0.60;;;;;;;15.22;100.00;99174.44;7356779;19;20018;-65
2023/09/21 06:22:14;;;;;;;11.68;0.50;;;;;;;15.25;100.00;99173.97;7358965;19;20912;-65
2023/09/21 06:24:43;;;;;;;11.30;0.60;;;;;;;15.22;100.00;99182.38;7356316;19;20035;-65
2023/09/21 06:27:09;;;;;;;7.82;0.52;;;;;;;15.24;100.00;99186.41;7352840;19;20817;-66
2023/09/21 06:29:37;;;;;;;7.88;0.50;;;;;;;15.22;100.00;99191.13;7357464;19;20010;-65
2023/09/21 06:32:07;;;;;;;8.85;0.47;;;;;;;15.19;100.00;99186.28;7349638;19;20193;-64
2023/09/21 06:34:37;;;;;;;6.38;0.50;;;;;;;15.21;100.00;99186.06;7354492;19;20023;-65
2023/09/21 06:37:04;;;;;;;4.65;0.50;;;;;;;15.19;100.00;99190.75;7355994;19;20581;-65
2023/09/21 06:39:31;;;;;;;11.73;0.40;;;;;;;15.20;99.42;99187.91;7356459;19;20019;-66
2023/09/21 06:41:59;;;;;;;7.72;0.35;;;;;;;15.22;99.79;99193.78;7352422;19;20025;-64
2023/09/21 06:44:28;;;;;;;10.38;0.50;;;;;;;15.22;99.44;99182.38;7356530;19;20023;-65
2023/09/21 06:46:56;;;;;;;10.60;0.50;;;;;;;15.24;99.49;99182.94;7353840;19;20026;-66
2023/09/21 06:49:23;;;;;;;7.45;1.13;;;;;;;15.23;99.48;99184.81;7355876;19;20093;-66
2023/09/21 06:51:50;;;;;;;5.95;0.40;;;;;;;15.26;100.00;99187.00;7361650;19;20011;-65
2023/09/21 06:54:17;;;;;;;10.48;1.27;;;;;;;15.28;100.00;99186.78;7365044;19;20025;-66
2023/09/21 06:56:44;;;;;;;6.88;0.60;;;;;;;15.32;100.00;99186.13;7358842;19;20109;-66
2023/09/21 06:59:12;;;;;;;10.55;0.63;;;;;;;15.34;100.00;99178.72;7364160;19;20107;-66
2023/09/21 07:01:39;;;;;;;10.43;0.80;;;;;;;15.34;100.00;99175.28;7362383;19;21924;-65
2023/09/21 07:04:07;;;;;;;9.23;0.43;;;;;;;15.33;99.46;99187.75;7365549;19;20627;-66
2023/09/21 07:06:35;;;;;;;6.07;0.73;;;;;;;15.34;99.51;99193.81;7363261;19;20374;-65
2023/09/21 07:09:04;;;;;;;7.50;0.40;;;;;;;15.37;99.85;99190.75;7363511;19;20046;-65
2023/09/21 07:11:33;;;;;;;7.82;1.13;;;;;;;15.38;99.97;99195.84;7358098;19;20018;-66
2023/09/21 07:14:00;;;;;;;12.05;1.33;;;;;;;15.41;99.65;99192.72;7362414;19;20751;-67
2023/09/21 07:16:28;;;;;;;12.38;0.73;;;;;;;15.39;98.98;99191.31;7355827;19;20097;-66
2023/09/21 07:18:55;;;;;;;7.30;0.50;;;;;;;15.40;98.59;99193.75;7356687;19;20373;-66
2023/09/21 07:21:22;;;;;;;9.63;1.08;;;;;;;15.44;99.19;99188.78;7357386;19;20018;-66
2023/09/21 07:23:49;;;;;;;6.32;0.82;;;;;;;15.44;98.76;99193.31;7360619;19;20014;-66
2023/09/21 07:26:17;;;;;;;9.55;0.85;;;;;;;15.44;98.08;99195.97;7357664;19;20054;-65
2023/09/21 07:28:45;;;;;;;9.32;0.63;;;;;;;15.47;97.99;99195.50;7361474;19;20517;-65
2023/09/21 07:31:13;;;;;;;7.65;0.50;;;;;;;15.51;98.26;99192.22;7360399;19;20041;-65
2023/09/21 07:33:40;;;;;;;12.75;0.95;;;;;;;15.51;96.25;99201.97;7362593;19;20279;-65
2023/09/21 07:36:08;;;;;;;15.50;1.55;;;;;;;15.56;95.86;99196.84;7357223;19;20017;-66
2023/09/21 07:38:36;;;;;;;8.25;0.60;;;;;;;15.61;96.25;99191.66;7360175;19;20086;-64
2023/09/21 07:41:03;;;;;;;7.22;0.43;;;;;;;15.61;95.78;99194.31;7355469;19;20130;-65
2023/09/21 07:43:30;;;;;;;9.32;0.55;;;;;;;15.65;95.46;99193.63;7359106;19;20033;-66
2023/09/21 07:45:57;;;;;;;8.63;0.63;;;;;;;15.69;95.95;99189.53;7357659;19;20014;-65
2023/09/21 07:48:26;;;;;;;8.38;0.70;;;;;;;15.75;95.70;99196.53;7359869;19;20011;-65
2023/09/21 07:50:56;;;;;;;13.90;0.80;;;;;;;15.82;96.33;99185.84;7356507;19;20060;-65
2023/09/21 07:53:23;;;;;;;8.85;0.40;;;;;;;15.85;95.99;99189.91;7362578;19;20014;-65
2023/09/21 07:56:04;;;;;;;6.45;1.08;;;;;;;15.88;96.14;99184.94;7358166;19;20050;-66
2023/09/21 07:58:31;;;;;;;14.25;1.30;;;;;;;16.14;100.00;99203.09;7361113;19;20040;-64
2023/09/21 08:00:58;;;;;;;16.33;0.98;;;;;;;16.29;100.00;99210.59;7361265;19;20060;-66
2023/09/21 08:03:26;;;;;;;13.30;0.43;;;;;;;16.23;100.00;99211.53;7359343;19;20023;-65
2023/09/21 08:05:53;;;;;;;9.93;0.60;;;;;;;16.21;96.04;99206.44;7362305;19;20021;-65
2023/09/21 08:08:21;;;;;;;4.45;0.30;;;;;;;16.24;94.66;99213.16;7363631;19;20007;-64
2023/09/21 08:10:52;;;;;;;4.28;0.43;;;;;;;16.22;91.77;99207.25;7361636;19;20462;-65
2023/09/21 08:13:26;;;;;;;13.48;0.70;;;;;;;16.26;90.76;99208.41;7363687;19;20022;-65
2023/09/21 08:15:53;;;;;;;6.00;0.50;;;;;;;16.26;90.14;99214.50;7357515;19;20374;-65
2023/09/21 08:18:20;;;;;;;11.70;0.50;;;;;;;16.30;90.35;99217.53;7356091;19;20038;-65
2023/09/21 08:20:47;;;;;;;14.27;0.57;;;;;;;16.35;90.68;99217.66;7358316;19;20018;-66
2023/09/21 08:23:17;;;;;;;11.18;0.50;;;;;;;16.37;90.12;99217.41;7362080;19;20731;-68
2023/09/21 08:25:44;;;;;;;9.32;0.43;;;;;;;16.43;91.03;99225.28;7361173;19;20582;-65
2023/09/21 08:28:11;;;;;;;8.75;0.40;;;;;;;16.49;92.15;99208.44;7358873;19;20038;-65
2023/09/21 08:30:38;;;;;;;13.38;1.45;;;;;;;16.50;90.60;99209.22;7361977;19;20081;-65
2023/09/21 08:33:08;;;;;;;10.20;0.52;;;;;;;16.52;91.07;99209.78;7359411;19;20086;-64
2023/09/21 08:35:35;;;;;;;6.50;0.40;;;;;;;16.57;92.13;99217.88;7356859;19;20717;-66
2023/09/21 08:38:03;;;;;;;18.52;2.30;;;;;;;16.60;93.11;99206.84;7359546;19;20040;-65
2023/09/21 08:40:34;;;;;;;9.45;0.80;;;;;;;16.60;91.50;99215.63;7357751;19;20019;-66
2023/09/21 08:43:01;;;;;;;8.90;0.70;;;;;;;16.64;91.89;99207.97;7357911;19;20040;-67
2023/09/21 08:45:28;;;;;;;6.20;0.60;;;;;;;16.68;91.31;99211.78;7361360;19;20241;-65
2023/09/21 08:47:56;;;;;;;11.95;0.47;;;;;;;16.67;90.24;99200.34;7361168;19;20015;-65
2023/09/21 08:50:26;;;;;;;5.57;0.50;;;;;;;16.75;91.02;99198.38;7357979;19;20038;-64
2023/09/21 08:52:54;;;;;;;7.25;0.50;;;;;;;16.77;87.52;99198.94;7360193;19;20018;-65
2023/09/21 08:55:25;;;;;;;11.20;1.50;;;;;;;16.82;88.67;99193.75;7358079;19;20090;-64
2023/09/21 08:57:53;;;;;;;7.15;0.30;;;;;;;16.88;87.38;99193.63;7359545;19;20018;-66
2023/09/21 09:00:26;;;;;;;10.50;0.45;;;;;;;16.91;86.69;99189.72;7359796;19;21010;-64
2023/09/21 09:02:54;;;;;;;6.10;0.40;;;;;;;16.97;87.16;99189.56;7359674;19;20075;-66
2023/09/21 09:05:22;;;;;;;5.72;0.40;;;;;;;17.03;87.92;99190.47;7358389;19;20014;-65
2023/09/21 09:07:49;;;;;;;5.15;0.30;;;;;;;17.05;86.39;99189.22;7359729;19;20033;-64
2023/09/21 09:10:16;;;;;;;8.65;0.52;;;;;;;17.08;86.66;99185.25;7360449;19;20027;-64
2023/09/21 09:12:44;;;;;;;5.97;0.35;;;;;;;17.14;86.31;99194.13;7358755;19;20102;-64
2023/09/21 09:15:11;;;;;;;8.77;0.32;;;;;;;17.20;85.74;99191.34;7359726;19;20018;-64
2023/09/21 09:17:39;;;;;;;9.18;0.50;;;;;;;17.22;85.11;99191.13;7351916;19;20098;-66
2023/09/21 09:20:08;;;;;;;3.50;0.30;;;;;;;17.27;84.45;99194.66;7356788;19;20422;-66
2023/09/21 09:22:35;;;;;;;12.25;0.50;;;;;;;17.32;85.61;99194.75;7360339;19;20408;-66
2023/09/21 09:25:07;;;;;;;7.80;0.40;;;;;;;17.38;85.71;99193.00;7359573;19;20022;-65
2023/09/21 09:27:35;;;;;;;6.53;0.45;;;;;;;17.37;83.96;99194.84;7354279;19;20014;-65
2023/09/21 09:30:08;;;;;;;7.20;0.75;;;;;;;17.40;83.23;99206.88;7363017;19;20118;-65
2023/09/21 09:32:41;;;;;;;11.05;0.60;;;;;;;17.44;83.32;99206.19;7361611;19;20608;-64
2023/09/21 09:35:12;;;;;;;9.32;0.40;;;;;;;17.47;82.38;99202.25;7361497;19;20078;-66
2023/09/21 09:37:44;;;;;;;9.80;0.50;;;;;;;17.50;84.06;99194.59;7359276;19;20018;-65
2023/09/21 09:40:18;;;;;;;7.15;0.50;;;;;;;17.56;84.30;99200.00;7360606;19;21136;-65
2023/09/21 09:42:49;;;;;;;6.50;0.57;;;;;;;17.61;84.80;99189.50;7356101;19;20865;-65
2023/09/21 09:45:27;;;;;;;8.60;0.45;;;;;;;17.62;81.98;99193.75;7357404;19;20561;-67
2023/09/21 09:47:56;;;;;;;12.32;0.57;;;;;;;17.64;82.94;99197.78;7357488;19;20018;-67
2023/09/21 09:50:24;;;;;;;8.77;0.45;;;;;;;17.66;82.88;99197.56;7360544;19;20053;-66
2023/09/21 09:53:05;;;;;;;9.60;0.40;;;;;;;17.71;84.37;99198.47;7358278;19;20757;-66
2023/09/21 09:55:35;;;;;;;7.05;0.93;;;;;;;17.69;82.70;99187.22;7358565;19;20010;-66
2023/09/21 09:58:04;;;;;;;7.25;0.40;;;;;;;17.72;81.96;99184.13;7356882;19;20026;-67
2023/09/21 10:00:31;;;;;;;5.55;0.38;;;;;;;17.71;79.88;99173.69;7360065;19;20082;-66
2023/09/21 10:02:58;;;;;;;3.97;0.40;;;;;;;17.70;78.49;99180.88;7356581;19;20098;-66
2023/09/21 10:05:27;;;;;;;6.22;0.60;;;;;;;17.77;81.78;99178.88;7345395;19;20022;-65
2023/09/21 10:08:01;;;;;;;7.40;0.60;;;;;;;17.82;82.17;99183.47;7358234;19;20010;-66
2023/09/21 10:10:36;;;;;;;9.70;0.50;;;;;;;17.85;80.84;99188.31;7358160;19;20029;-65
2023/09/21 10:13:04;;;;;;;8.05;0.90;;;;;;;17.87;79.22;99197.69;7354738;19;20542;-67
2023/09/21 10:15:33;;;;;;;4.05;0.47;;;;;;;17.98;79.04;99198.63;7359346;19;20024;-66
2023/09/21 10:18:01;;;;;;;7.93;0.50;;;;;;;18.04;79.21;99194.19;7355135;19;20435;-67
2023/09/21 10:20:32;;;;;;;11.93;0.47;;;;;;;18.08;79.43;99192.69;7354152;19;20359;-66
2023/09/21 10:23:01;;;;;;;8.50;0.60;;;;;;;18.16;80.53;99200.25;7355307;19;20041;-66
2023/09/21 10:25:45;;;;;;;7.38;0.50;;;;;;;18.17;80.37;99196.56;7359264;19;20405;-66
2023/09/21 10:28:28;;;;;;;4.25;0.40;;;;;;;18.21;80.46;99195.81;7363653;19;20350;-66
2023/09/21 10:31:27;;;;;;;7.22;0.50;;;;;;;18.21;76.86;99190.50;7365465;19;20014;-67
2023/09/21 10:33:57;;;;;;;6.10;0.50;;;;;;;18.24;76.39;99200.66;7362750;19;20006;-67
2023/09/21 10:36:29;;;;;;;8.80;0.40;;;;;;;18.25;76.79;99177.50;7363031;19;20014;-65
2023/09/21 10:39:24;;;;;;;16.88;2.25;;;;;;;18.29;77.67;99179.44;7365292;19;20037;-67
2023/09/21 10:42:15;;;;;;;8.20;0.50;;;;;;;18.32;76.40;99181.63;7362913;19;21107;-68
2023/09/21 10:45:05;;;;;;;7.88;0.40;;;;;;;18.39;76.29;99173.44;7360089;19;20050;-66
2023/09/21 10:47:41;;;;;;;8.60;1.60;;;;;;;18.42;73.97;99164.97;7362858;19;20029;-66
2023/09/21 10:50:10;;;;;;;3.95;0.30;;;;;;;18.44;73.65;99157.53;7362412;19;20473;-65
2023/09/21 10:52:44;;;;;;;5.95;0.57;;;;;;;18.47;74.38;99154.41;7359592;19;20018;-65
2023/09/21 10:55:14;;;;;;;7.15;0.40;;;;;;;18.50;73.75;99156.56;7359214;19;20018;-66
2023/09/21 10:57:42;;;;;;;7.55;0.40;;;;;;;18.57;73.60;99170.56;7354276;19;20082;-67
2023/09/21 11:00:18;;;;;;;4.47;0.40;;;;;;;18.59;72.14;99173.75;7365458;19;20035;-65
2023/09/21 11:02:47;;;;;;;6.53;0.32;;;;;;;18.58;71.06;99172.16;7362058;19;20014;-66
2023/09/21 11:05:18;;;;;;;6.40;0.40;;;;;;;18.58;71.77;99169.50;7364539;19;20251;-66
2023/09/21 11:07:48;;;;;;;4.72;0.40;;;;;;;18.64;73.13;99184.47;7361242;19;20861;-66
2023/09/21 11:10:16;;;;;;;3.15;0.40;;;;;;;18.68;72.38;99171.50;7360685;19;20018;-66
2023/09/21 11:12:44;;;;;;;6.93;0.60;;;;;;;18.70;70.84;99169.38;7358734;19;20109;-65
2023/09/21 11:15:13;;;;;;;4.78;0.40;;;;;;;18.69;70.61;99165.13;7361149;19;20026;-66
2023/09/21 11:17:46;;;;;;;7.20;0.40;;;;;;;18.65;70.51;99159.47;7360066;19;20086;-67
2023/09/21 11:20:17;;;;;;;6.05;0.30;;;;;;;18.64;70.50;99160.50;7357034;19;20014;-66
2023/09/21 11:22:47;;;;;;;5.35;0.38;;;;;;;18.62;69.00;99167.97;7353899;19;20633;-66
2023/09/21 11:25:20;;;;;;;7.55;0.45;;;;;;;18.58;68.92;99158.84;7363789;19;20018;-67
2023/09/21 11:27:49;;;;;;;3.83;0.30;;;;;;;18.56;69.00;99152.94;7358070;19;20025;-66
2023/09/21 11:30:16;;;;;;;5.20;0.52;;;;;;;18.59;70.36;99157.00;7363804;19;20509;-66
2023/09/21 11:32:46;;;;;;;2.65;0.40;;;;;;;18.61;67.94;99152.22;7360499;19;20718;-66
2023/09/21 11:35:17;;;;;;;3.45;0.40;;;;;;;18.67;67.70;99154.69;7365064;19;20006;-67
2023/09/21 11:37:51;;;;;;;7.78;0.82;;;;;;;18.79;69.47;99154.59;7358359;19;20133;-66
2023/09/21 11:40:22;;;;;;;2.83;0.30;;;;;;;18.86;67.81;99154.38;7360864;19;20027;-66